sensor_id;sensor_type;location;lat;lon;timestamp;pressure;altitude;pressure_sealevel;temperature;humidity
16194;BME280;8204;53.582;10.080;2023-02-14T19:08:05;102572.41;;;10.52;100.00
16194;BME280;8204;53.582;10.080;2023-02-14T19:10:36;102571.69;;;10.50;100.00
16194;BME280;8204;53.582;10.080;2023-02-14T19:13:05;102579.66;;;10.49;100.00
16194;BME280;8204;53.582;10.080;2023-02-14T19:15:33;102566.78;;;10.46;100.00
16194;BME280;8204;53.582;10.080;2023-02-14T19:18:02;102563.44;;;10.44;100.00
16194;BME280;8204;53.582;10.080;2023-02-14T19:20:31;102556.53;;;10.43;100.00
16194;BME280;8204;53.582;10.080;2023-02-14T19:23:00;102566.41;;;10.39;100.00
16194;BME280;8204;53.582;10.080;2023-02-14T19:25:31;102557.69;;;10.39;100.00
16194;BME280;8204;53.582;10.080;2023-02-14T19:28:03;102555.19;;;10.37;100.00
16194;BME280;8204;53.582;10.080;2023-02-14T19:30:32;102555.41;;;10.34;100.00
16194;BME280;8204;53.582;10.080;2023-02-14T19:33:03;102559.09;;;10.32;100.00
16194;BME280;8204;53.582;10.080;2023-02-14T19:35:32;102551.69;;;10.26;100.00
16194;BME280;8204;53.582;10.080;2023-02-14T19:38:01;102545.72;;;10.24;100.00
16194;BME280;8204;53.582;10.080;2023-02-14T19:40:33;102539.97;;;10.19;100.00
16194;BME280;8204;53.582;10.080;2023-02-14T19:43:02;102550.91;;;10.13;100.00
16194;BME280;8204;53.582;10.080;2023-02-14T19:45:30;102539.63;;;10.13;100.00
16194;BME280;8204;53.582;10.080;2023-02-14T19:47:59;102545.06;;;10.10;100.00
16194;BME280;8204;53.582;10.080;2023-02-14T19:50:28;102555.16;;;10.03;100.00
16194;BME280;8204;53.582;10.080;2023-02-14T19:52:57;102548.25;;;10.02;100.00
16194;BME280;8204;53.582;10.080;2023-02-14T19:55:26;102544.91;;;10.00;100.00
16194;BME280;8204;53.582;10.080;2023-02-14T19:57:58;102544.38;;;9.95;100.00
16194;BME280;8204;53.582;10.080;2023-02-14T20:00:26;102541.13;;;9.92;100.00
16194;BME280;8204;53.582;10.080;2023-02-14T20:02:59;102533.41;;;9.90;100.00
16194;BME280;8204;53.582;10.080;2023-02-14T20:05:28;102535.50;;;9.85;100.00
16194;BME280;8204;53.582;10.080;2023-02-14T20:07:57;102523.38;;;9.84;100.00
16194;BME280;8204;53.582;10.080;2023-02-14T20:10:26;102537.59;;;9.80;100.00
16194;BME280;8204;53.582;10.080;2023-02-14T20:12:54;102530.94;;;9.76;100.00
16194;BME280;8204;53.582;10.080;2023-02-14T20:15:26;102525.91;;;9.73;100.00
16194;BME280;8204;53.582;10.080;2023-02-14T20:17:55;102522.47;;;9.73;100.00
16194;BME280;8204;53.582;10.080;2023-02-14T20:20:24;102514.94;;;9.68;100.00
16194;BME280;8204;53.582;10.080;2023-02-14T20:22:53;102511.50;;;9.68;100.00
16194;BME280;8204;53.582;10.080;2023-02-14T20:25:21;102515.25;;;9.64;100.00
16194;BME280;8204;53.582;10.080;2023-02-14T20:27:52;102500.50;;;9.63;100.00
16194;BME280;8204;53.582;10.080;2023-02-14T20:30:21;102501.56;;;9.60;100.00
16194;BME280;8204;53.582;10.080;2023-02-14T20:32:53;102486.19;;;9.56;100.00
16194;BME280;8204;53.582;10.080;2023-02-14T20:35:21;102494.16;;;9.54;100.00
16194;BME280;8204;53.582;10.080;2023-02-14T20:37:50;102481.38;;;9.50;100.00
16194;BME280;8204;53.582;10.080;2023-02-14T20:40:19;102482.56;;;9.46;100.00
16194;BME280;8204;53.582;10.080;2023-02-14T20:42:48;102492.41;;;9.43;100.00
16194;BME280;8204;53.582;10.080;2023-02-14T20:45:17;102489.38;;;9.36;100.00
16194;BME280;8204;53.582;10.080;2023-02-14T20:47:46;102488.75;;;9.33;100.00
16194;BME280;8204;53.582;10.080;2023-02-14T20:50:18;102481.25;;;9.28;100.00
16194;BME280;8204;53.582;10.080;2023-02-14T20:52:46;102479.91;;;9.23;100.00
16194;BME280;8204;53.582;10.080;2023-02-14T20:55:15;102480.94;;;9.20;100.00
16194;BME280;8204;53.582;10.080;2023-02-14T20:57:44;102477.91;;;9.14;100.00
16194;BME280;8204;53.582;10.080;2023-02-14T21:00:13;102472.69;;;9.14;100.00
16194;BME280;8204;53.582;10.080;2023-02-14T21:02:42;102476.47;;;9.10;100.00
16194;BME280;8204;53.582;10.080;2023-02-14T21:05:11;102467.88;;;9.08;100.00
16194;BME280;8204;53.582;10.080;2023-02-14T21:07:45;102464.56;;;9.06;100.00
16194;BME280;8204;53.582;10.080;2023-02-14T21:10:15;102466.56;;;9.02;100.00
16194;BME280;8204;53.582;10.080;2023-02-14T21:12:43;102464.97;;;9.00;100.00
16194;BME280;8204;53.582;10.080;2023-02-14T21:15:13;102463.50;;;8.96;100.00
16194;BME280;8204;53.582;10.080;2023-02-14T21:17:42;102470.97;;;8.89;100.00
16194;BME280;8204;53.582;10.080;2023-02-14T21:20:11;102449.44;;;8.86;100.00
16194;BME280;8204;53.582;10.080;2023-02-14T21:22:41;102457.47;;;8.83;100.00
16194;BME280;8204;53.582;10.080;2023-02-14T21:25:12;102441.78;;;8.83;100.00
16194;BME280;8204;53.582;10.080;2023-02-14T21:27:41;102452.66;;;8.77;100.00
16194;BME280;8204;53.582;10.080;2023-02-14T21:30:12;102452.97;;;8.72;100.00
16194;BME280;8204;53.582;10.080;2023-02-14T21:32:42;102447.88;;;8.71;100.00
16194;BME280;8204;53.582;10.080;2023-02-14T21:35:10;102451.41;;;8.70;100.00
16194;BME280;8204;53.582;10.080;2023-02-14T21:37:39;102441.19;;;8.67;100.00
16194;BME280;8204;53.582;10.080;2023-02-14T21:40:08;102453.50;;;8.65;100.00
16194;BME280;8204;53.582;10.080;2023-02-14T21:42:40;102461.66;;;8.61;100.00
16194;BME280;8204;53.582;10.080;2023-02-14T21:45:11;102447.03;;;8.58;100.00
16194;BME280;8204;53.582;10.080;2023-02-14T21:47:52;102443.78;;;8.55;100.00
16194;BME280;8204;53.582;10.080;2023-02-14T21:50:33;102445.78;;;8.51;100.00
16194;BME280;8204;53.582;10.080;2023-02-14T21:53:03;102445.97;;;8.48;100.00
16194;BME280;8204;53.582;10.080;2023-02-14T21:55:34;102455.91;;;8.43;100.00
16194;BME280;8204;53.582;10.080;2023-02-14T21:58:05;102449.00;;;8.42;100.00
16194;BME280;8204;53.582;10.080;2023-02-14T22:00:35;102445.88;;;8.37;100.00
16194;BME280;8204;53.582;10.080;2023-02-14T22:03:04;102444.41;;;8.33;100.00
16194;BME280;8204;53.582;10.080;2023-02-14T22:05:32;102444.72;;;8.29;100.00
16194;BME280;8204;53.582;10.080;2023-02-14T22:08:01;102433.63;;;8.25;100.00
16194;BME280;8204;53.582;10.080;2023-02-14T22:10:30;102443.56;;;8.20;100.00
16194;BME280;8204;53.582;10.080;2023-02-14T22:12:58;102428.94;;;8.18;100.00
16194;BME280;8204;53.582;10.080;2023-02-14T22:15:30;102428.19;;;8.16;100.00
16194;BME280;8204;53.582;10.080;2023-02-14T22:17:59;102427.34;;;8.15;100.00
16194;BME280;8204;53.582;10.080;2023-02-14T22:20:28;102430.13;;;8.12;100.00
16194;BME280;8204;53.582;10.080;2023-02-14T22:22:56;102428.66;;;8.08;100.00
16194;BME280;8204;53.582;10.080;2023-02-14T22:25:25;102413.09;;;8.07;100.00
16194;BME280;8204;53.582;10.080;2023-02-14T22:27:54;102393.78;;;8.09;100.00
16194;BME280;8204;53.582;10.080;2023-02-14T22:30:23;102378.03;;;8.11;100.00
16194;BME280;8204;53.582;10.080;2023-02-14T22:32:55;102369.25;;;8.12;100.00
16194;BME280;8204;53.582;10.080;2023-02-14T22:35:23;102365.91;;;8.10;100.00
16194;BME280;8204;53.582;10.080;2023-02-14T22:37:53;102349.22;;;8.12;100.00
16194;BME280;8204;53.582;10.080;2023-02-14T22:40:22;102333.66;;;8.11;100.00
16194;BME280;8204;53.582;10.080;2023-02-14T22:42:50;102308.25;;;8.13;100.00
16194;BME280;8204;53.582;10.080;2023-02-14T22:45:19;102291.03;;;8.10;100.00
16194;BME280;8204;53.582;10.080;2023-02-14T22:47:48;102273.50;;;8.12;100.00
16194;BME280;8204;53.582;10.080;2023-02-14T22:50:19;102285.69;;;8.12;100.00
16194;BME280;8204;53.582;10.080;2023-02-14T22:52:48;102258.78;;;8.11;100.00
16194;BME280;8204;53.582;10.080;2023-02-14T22:55:17;102241.44;;;8.10;100.00
16194;BME280;8204;53.582;10.080;2023-02-14T22:57:46;102228.38;;;8.10;100.00
16194;BME280;8204;53.582;10.080;2023-02-14T23:00:15;102209.38;;;8.08;100.00
16194;BME280;8204;53.582;10.080;2023-02-14T23:02:44;102206.88;;;8.07;100.00
16194;BME280;8204;53.582;10.080;2023-02-14T23:05:13;102199.97;;;8.06;100.00
16194;BME280;8204;53.582;10.080;2023-02-14T23:07:45;102169.50;;;8.06;100.00
16194;BME280;8204;53.582;10.080;2023-02-14T23:10:13;102150.31;;;8.07;100.00
16194;BME280;8204;53.582;10.080;2023-02-14T23:12:42;102149.34;;;8.08;100.00
16194;BME280;8204;53.582;10.080;2023-02-14T23:15:24;102133.59;;;8.10;100.00
16194;BME280;8204;53.582;10.080;2023-02-14T23:18:05;102127.44;;;8.11;100.00
16194;BME280;8204;53.582;10.080;2023-02-14T23:20:46;102119.69;;;8.09;100.00
16194;BME280;8204;53.582;10.080;2023-02-14T23:23:32;102102.97;;;8.12;100.00
16194;BME280;8204;53.582;10.080;2023-02-14T23:26:01;102099.53;;;8.11;100.00
16194;BME280;8204;53.582;10.080;2023-02-14T23:28:30;102104.00;;;8.09;100.00
16194;BME280;8204;53.582;10.080;2023-02-14T23:30:59;102099.72;;;8.08;100.00
16194;BME280;8204;53.582;10.080;2023-02-14T23:33:28;102090.25;;;8.07;100.00
16194;BME280;8204;53.582;10.080;2023-02-14T23:36:01;102092.13;;;8.05;100.00
16194;BME280;8204;53.582;10.080;2023-02-14T23:38:33;102084.44;;;8.04;100.00
16194;BME280;8204;53.582;10.080;2023-02-14T23:41:07;102078.59;;;8.00;100.00
16194;BME280;8204;53.582;10.080;2023-02-14T23:43:48;102067.22;;;8.01;100.00
16194;BME280;8204;53.582;10.080;2023-02-14T23:46:17;102054.97;;;8.02;100.00
16194;BME280;8204;53.582;10.080;2023-02-14T23:48:46;102047.03;;;8.03;100.00
16194;BME280;8204;53.582;10.080;2023-02-14T23:51:15;102031.38;;;8.03;100.00
16194;BME280;8204;53.582;10.080;2023-02-14T23:53:47;102020.25;;;8.01;100.00
16194;BME280;8204;53.582;10.080;2023-02-14T23:56:15;102004.56;;;8.01;100.00
16194;BME280;8204;53.582;10.080;2023-02-14T23:58:44;101995.78;;;8.02;100.00
